sensor_id;sensor_type;location;lat;lon;timestamp;temperature;humidity
10314;DHT22;5202;49.138;10.090;2023-03-15T00:01:13;1.10;99.90
10314;DHT22;5202;49.138;10.090;2023-03-15T00:03:43;1.00;99.90
10314;DHT22;5202;49.138;10.090;2023-03-15T00:06:12;1.00;99.90
10314;DHT22;5202;49.138;10.090;2023-03-15T00:08:41;0.90;99.90
10314;DHT22;5202;49.138;10.090;2023-03-15T00:11:14;0.80;99.90
10314;DHT22;5202;49.138;10.090;2023-03-15T00:13:44;0.90;99.90
10314;DHT22;5202;49.138;10.090;2023-03-15T00:16:12;0.80;99.90
10314;DHT22;5202;49.138;10.090;2023-03-15T00:18:43;0.90;99.90
10314;DHT22;5202;49.138;10.090;2023-03-15T00:21:13;0.90;99.90
10314;DHT22;5202;49.138;10.090;2023-03-15T00:23:47;1.00;99.90
10314;DHT22;5202;49.138;10.090;2023-03-15T00:26:16;0.90;99.90
10314;DHT22;5202;49.138;10.090;2023-03-15T00:28:46;0.80;99.90
10314;DHT22;5202;49.138;10.090;2023-03-15T00:31:16;0.80;99.90
10314;DHT22;5202;49.138;10.090;2023-03-15T00:33:45;0.80;99.90
10314;DHT22;5202;49.138;10.090;2023-03-15T00:36:15;0.80;99.90
10314;DHT22;5202;49.138;10.090;2023-03-15T00:38:43;0.80;99.90
10314;DHT22;5202;49.138;10.090;2023-03-15T00:41:14;0.80;99.90
10314;DHT22;5202;49.138;10.090;2023-03-15T00:43:43;0.80;99.90
10314;DHT22;5202;49.138;10.090;2023-03-15T00:46:14;0.80;99.90
10314;DHT22;5202;49.138;10.090;2023-03-15T00:48:46;0.80;99.90
10314;DHT22;5202;49.138;10.090;2023-03-15T00:51:18;0.80;99.90
10314;DHT22;5202;49.138;10.090;2023-03-15T00:53:49;0.80;99.90
10314;DHT22;5202;49.138;10.090;2023-03-15T00:56:19;0.80;99.90
10314;DHT22;5202;49.138;10.090;2023-03-15T00:58:50;0.70;99.90
10314;DHT22;5202;49.138;10.090;2023-03-15T01:01:22;0.70;99.90
10314;DHT22;5202;49.138;10.090;2023-03-15T01:03:52;0.80;99.90
10314;DHT22;5202;49.138;10.090;2023-03-15T01:06:24;0.80;99.90
10314;DHT22;5202;49.138;10.090;2023-03-15T01:09:03;0.80;99.90
10314;DHT22;5202;49.138;10.090;2023-03-15T01:11:31;0.80;99.90
10314;DHT22;5202;49.138;10.090;2023-03-15T01:14:01;0.80;99.90
10314;DHT22;5202;49.138;10.090;2023-03-15T01:16:31;0.90;99.90
10314;DHT22;5202;49.138;10.090;2023-03-15T01:18:59;0.90;99.90
10314;DHT22;5202;49.138;10.090;2023-03-15T01:21:27;0.90;99.90
10314;DHT22;5202;49.138;10.090;2023-03-15T01:23:55;0.80;99.90
10314;DHT22;5202;49.138;10.090;2023-03-15T01:26:24;0.90;99.90
10314;DHT22;5202;49.138;10.090;2023-03-15T01:28:52;0.90;99.90
10314;DHT22;5202;49.138;10.090;2023-03-15T01:31:24;1.00;99.90
10314;DHT22;5202;49.138;10.090;2023-03-15T01:33:53;1.00;99.90
10314;DHT22;5202;49.138;10.090;2023-03-15T01:36:22;0.90;99.90
10314;DHT22;5202;49.138;10.090;2023-03-15T01:38:51;0.90;99.90
10314;DHT22;5202;49.138;10.090;2023-03-15T01:41:26;0.80;99.90
10314;DHT22;5202;49.138;10.090;2023-03-15T01:43:55;0.90;99.90
10314;DHT22;5202;49.138;10.090;2023-03-15T01:46:27;0.90;99.90
10314;DHT22;5202;49.138;10.090;2023-03-15T01:49:21;0.90;99.90
10314;DHT22;5202;49.138;10.090;2023-03-15T01:51:54;0.90;99.90
10314;DHT22;5202;49.138;10.090;2023-03-15T01:54:29;0.80;99.90
10314;DHT22;5202;49.138;10.090;2023-03-15T01:57:03;0.80;99.90
10314;DHT22;5202;49.138;10.090;2023-03-15T01:59:36;0.80;99.90
10314;DHT22;5202;49.138;10.090;2023-03-15T02:02:08;0.90;99.90
10314;DHT22;5202;49.138;10.090;2023-03-15T02:04:43;0.90;99.90
10314;DHT22;5202;49.138;10.090;2023-03-15T02:07:16;0.90;99.90
10314;DHT22;5202;49.138;10.090;2023-03-15T02:09:49;0.80;99.90
10314;DHT22;5202;49.138;10.090;2023-03-15T02:12:21;0.80;99.90
10314;DHT22;5202;49.138;10.090;2023-03-15T02:14:51;0.80;99.90
10314;DHT22;5202;49.138;10.090;2023-03-15T02:17:30;0.70;99.90
10314;DHT22;5202;49.138;10.090;2023-03-15T02:20:07;0.70;99.90
10314;DHT22;5202;49.138;10.090;2023-03-15T02:22:48;0.70;99.90
10314;DHT22;5202;49.138;10.090;2023-03-15T02:25:25;0.70;99.90
10314;DHT22;5202;49.138;10.090;2023-03-15T02:28:03;0.70;99.90
10314;DHT22;5202;49.138;10.090;2023-03-15T02:30:34;0.70;99.90
10314;DHT22;5202;49.138;10.090;2023-03-15T02:33:05;0.80;99.90
10314;DHT22;5202;49.138;10.090;2023-03-15T02:35:36;0.70;99.90
10314;DHT22;5202;49.138;10.090;2023-03-15T02:38:04;0.70;99.90
10314;DHT22;5202;49.138;10.090;2023-03-15T02:40:32;0.70;99.90
10314;DHT22;5202;49.138;10.090;2023-03-15T02:43:04;0.70;99.90
10314;DHT22;5202;49.138;10.090;2023-03-15T02:45:34;0.70;99.90
10314;DHT22;5202;49.138;10.090;2023-03-15T02:48:05;0.70;99.90
10314;DHT22;5202;49.138;10.090;2023-03-15T02:50:35;0.70;99.90
10314;DHT22;5202;49.138;10.090;2023-03-15T02:53:03;0.70;99.90
10314;DHT22;5202;49.138;10.090;2023-03-15T02:55:32;0.70;99.90
10314;DHT22;5202;49.138;10.090;2023-03-15T02:58:02;0.70;99.90
10314;DHT22;5202;49.138;10.090;2023-03-15T03:00:30;0.70;99.90
10314;DHT22;5202;49.138;10.090;2023-03-15T03:02:59;0.70;99.90
10314;DHT22;5202;49.138;10.090;2023-03-15T03:05:32;0.70;99.90
10314;DHT22;5202;49.138;10.090;2023-03-15T03:08:00;0.70;99.90
10314;DHT22;5202;49.138;10.090;2023-03-15T03:10:52;0.70;99.90
10314;DHT22;5202;49.138;10.090;2023-03-15T03:13:22;0.70;99.90
10314;DHT22;5202;49.138;10.090;2023-03-15T03:15:51;0.70;99.90
10314;DHT22;5202;49.138;10.090;2023-03-15T03:18:27;0.70;99.90
10314;DHT22;5202;49.138;10.090;2023-03-15T03:20:57;0.70;99.90
10314;DHT22;5202;49.138;10.090;2023-03-15T03:23:26;0.70;99.90
10314;DHT22;5202;49.138;10.090;2023-03-15T03:25:55;0.80;99.90
10314;DHT22;5202;49.138;10.090;2023-03-15T03:28:27;0.80;99.90
10314;DHT22;5202;49.138;10.090;2023-03-15T03:30:58;0.80;99.90
10314;DHT22;5202;49.138;10.090;2023-03-15T03:33:32;0.80;99.90
10314;DHT22;5202;49.138;10.090;2023-03-15T03:36:00;0.70;99.90
10314;DHT22;5202;49.138;10.090;2023-03-15T03:38:29;0.70;99.90
10314;DHT22;5202;49.138;10.090;2023-03-15T03:41:00;0.70;99.90
10314;DHT22;5202;49.138;10.090;2023-03-15T03:43:32;0.70;99.90
10314;DHT22;5202;49.138;10.090;2023-03-15T03:46:00;0.70;99.90
10314;DHT22;5202;49.138;10.090;2023-03-15T03:48:30;0.70;99.90
10314;DHT22;5202;49.138;10.090;2023-03-15T03:50:59;0.70;99.90
10314;DHT22;5202;49.138;10.090;2023-03-15T03:53:27;0.70;99.90
10314;DHT22;5202;49.138;10.090;2023-03-15T03:55:55;0.70;99.90
10314;DHT22;5202;49.138;10.090;2023-03-15T03:58:24;0.70;99.90
10314;DHT22;5202;49.138;10.090;2023-03-15T04:00:59;0.70;99.90
10314;DHT22;5202;49.138;10.090;2023-03-15T04:03:30;0.70;99.90
10314;DHT22;5202;49.138;10.090;2023-03-15T04:06:06;0.70;99.90
10314;DHT22;5202;49.138;10.090;2023-03-15T04:08:38;0.70;99.90
10314;DHT22;5202;49.138;10.090;2023-03-15T04:11:11;0.70;99.90
10314;DHT22;5202;49.138;10.090;2023-03-15T04:13:48;0.70;99.90
10314;DHT22;5202;49.138;10.090;2023-03-15T04:16:17;0.60;99.90
10314;DHT22;5202;49.138;10.090;2023-03-15T04:18:56;0.60;99.90
10314;DHT22;5202;49.138;10.090;2023-03-15T04:21:25;0.60;99.90
10314;DHT22;5202;49.138;10.090;2023-03-15T04:24:07;0.70;99.90
10314;DHT22;5202;49.138;10.090;2023-03-15T04:26:49;0.60;99.90
10314;DHT22;5202;49.138;10.090;2023-03-15T04:29:53;0.70;99.90
10314;DHT22;5202;49.138;10.090;2023-03-15T04:32:39;0.70;99.90
10314;DHT22;5202;49.138;10.090;2023-03-15T04:35:19;0.60;99.90
10314;DHT22;5202;49.138;10.090;2023-03-15T04:38:01;0.60;99.90
10314;DHT22;5202;49.138;10.090;2023-03-15T04:40:50;0.60;99.90
10314;DHT22;5202;49.138;10.090;2023-03-15T04:43:39;0.60;99.90
10314;DHT22;5202;49.138;10.090;2023-03-15T04:46:26;0.60;99.90
10314;DHT22;5202;49.138;10.090;2023-03-15T04:49:15;0.60;99.90
10314;DHT22;5202;49.138;10.090;2023-03-15T04:51:55;0.50;99.90
10314;DHT22;5202;49.138;10.090;2023-03-15T04:54:44;0.60;99.90
10314;DHT22;5202;49.138;10.090;2023-03-15T04:57:23;0.60;99.90
10314;DHT22;5202;49.138;10.090;2023-03-15T05:00:02;0.60;99.90
10314;DHT22;5202;49.138;10.090;2023-03-15T05:02:56;0.60;99.90
10314;DHT22;5202;49.138;10.090;2023-03-15T05:05:49;0.60;99.90
10314;DHT22;5202;49.138;10.090;2023-03-15T05:08:37;0.50;99.90
10314;DHT22;5202;49.138;10.090;2023-03-15T05:11:24;0.50;99.90
10314;DHT22;5202;49.138;10.090;2023-03-15T05:14:06;0.60;99.90
10314;DHT22;5202;49.138;10.090;2023-03-15T05:16:48;0.60;99.90
10314;DHT22;5202;49.138;10.090;2023-03-15T05:19:44;0.50;99.90
10314;DHT22;5202;49.138;10.090;2023-03-15T05:22:32;0.50;99.90
10314;DHT22;5202;49.138;10.090;2023-03-15T05:25:19;0.50;99.90
10314;DHT22;5202;49.138;10.090;2023-03-15T05:28:23;0.50;99.90
10314;DHT22;5202;49.138;10.090;2023-03-15T05:30:52;0.50;99.90
10314;DHT22;5202;49.138;10.090;2023-03-15T05:33:44;0.50;99.90
10314;DHT22;5202;49.138;10.090;2023-03-15T05:36:28;0.50;99.90
10314;DHT22;5202;49.138;10.090;2023-03-15T05:39:21;0.50;99.90
10314;DHT22;5202;49.138;10.090;2023-03-15T05:41:56;0.40;99.90
10314;DHT22;5202;49.138;10.090;2023-03-15T05:44:42;0.40;99.90
10314;DHT22;5202;49.138;10.090;2023-03-15T05:47:36;0.50;99.90
10314;DHT22;5202;49.138;10.090;2023-03-15T05:50:05;0.40;99.90
10314;DHT22;5202;49.138;10.090;2023-03-15T05:52:49;0.40;99.90
10314;DHT22;5202;49.138;10.090;2023-03-15T05:55:42;0.30;99.90
10314;DHT22;5202;49.138;10.090;2023-03-15T05:58:28;0.30;99.90
10314;DHT22;5202;49.138;10.090;2023-03-15T06:01:05;0.30;99.90
10314;DHT22;5202;49.138;10.090;2023-03-15T06:03:53;0.30;99.90
10314;DHT22;5202;49.138;10.090;2023-03-15T06:06:25;0.30;99.90
10314;DHT22;5202;49.138;10.090;2023-03-15T06:08:54;0.30;99.90
10314;DHT22;5202;49.138;10.090;2023-03-15T06:11:23;0.20;99.90
10314;DHT22;5202;49.138;10.090;2023-03-15T06:13:52;0.20;99.90
10314;DHT22;5202;49.138;10.090;2023-03-15T06:16:34;0.20;99.90
10314;DHT22;5202;49.138;10.090;2023-03-15T06:19:03;0.20;99.90
10314;DHT22;5202;49.138;10.090;2023-03-15T06:21:31;0.20;99.90
10314;DHT22;5202;49.138;10.090;2023-03-15T06:24:02;0.30;99.90
10314;DHT22;5202;49.138;10.090;2023-03-15T06:26:35;0.30;99.90
10314;DHT22;5202;49.138;10.090;2023-03-15T06:29:04;0.40;99.90
10314;DHT22;5202;49.138;10.090;2023-03-15T06:31:33;0.40;99.90
10314;DHT22;5202;49.138;10.090;2023-03-15T06:34:04;0.40;99.90
10314;DHT22;5202;49.138;10.090;2023-03-15T06:36:33;0.30;99.90
10314;DHT22;5202;49.138;10.090;2023-03-15T06:39:02;0.50;99.90
10314;DHT22;5202;49.138;10.090;2023-03-15T06:41:31;0.50;99.90
10314;DHT22;5202;49.138;10.090;2023-03-15T06:44:10;0.50;99.90
10314;DHT22;5202;49.138;10.090;2023-03-15T06:46:39;0.60;99.90
10314;DHT22;5202;49.138;10.090;2023-03-15T06:49:07;0.60;99.90
10314;DHT22;5202;49.138;10.090;2023-03-15T06:51:36;0.60;99.90
10314;DHT22;5202;49.138;10.090;2023-03-15T06:54:05;0.60;99.90
10314;DHT22;5202;49.138;10.090;2023-03-15T06:56:35;0.60;99.90
10314;DHT22;5202;49.138;10.090;2023-03-15T06:59:04;0.70;99.90
10314;DHT22;5202;49.138;10.090;2023-03-15T07:01:34;0.70;99.90
10314;DHT22;5202;49.138;10.090;2023-03-15T07:04:09;0.70;99.90
10314;DHT22;5202;49.138;10.090;2023-03-15T07:06:38;0.70;99.90
10314;DHT22;5202;49.138;10.090;2023-03-15T07:09:08;0.70;99.90
10314;DHT22;5202;49.138;10.090;2023-03-15T07:11:36;0.80;99.90
10314;DHT22;5202;49.138;10.090;2023-03-15T07:14:05;0.70;99.90
10314;DHT22;5202;49.138;10.090;2023-03-15T07:16:34;0.70;99.90
10314;DHT22;5202;49.138;10.090;2023-03-15T07:19:03;0.80;99.90
10314;DHT22;5202;49.138;10.090;2023-03-15T07:21:31;0.80;99.90
10314;DHT22;5202;49.138;10.090;2023-03-15T07:23:59;0.90;99.90
10314;DHT22;5202;49.138;10.090;2023-03-15T07:26:28;1.00;99.90
10314;DHT22;5202;49.138;10.090;2023-03-15T07:28:56;1.10;99.90
10314;DHT22;5202;49.138;10.090;2023-03-15T07:31:24;1.20;99.90
10314;DHT22;5202;49.138;10.090;2023-03-15T07:33:57;1.20;99.90
10314;DHT22;5202;49.138;10.090;2023-03-15T07:36:25;1.20;99.90
10314;DHT22;5202;49.138;10.090;2023-03-15T07:38:53;1.20;99.90
10314;DHT22;5202;49.138;10.090;2023-03-15T07:41:21;1.20;99.90
10314;DHT22;5202;49.138;10.090;2023-03-15T07:43:57;1.40;99.90
10314;DHT22;5202;49.138;10.090;2023-03-15T07:46:25;1.40;99.90
10314;DHT22;5202;49.138;10.090;2023-03-15T07:48:53;1.40;99.90
10314;DHT22;5202;49.138;10.090;2023-03-15T07:51:23;1.50;99.90
10314;DHT22;5202;49.138;10.090;2023-03-15T07:53:51;1.50;99.90
10314;DHT22;5202;49.138;10.090;2023-03-15T07:56:20;1.50;99.90
10314;DHT22;5202;49.138;10.090;2023-03-15T07:58:48;1.60;99.90
10314;DHT22;5202;49.138;10.090;2023-03-15T08:01:17;1.80;99.90
10314;DHT22;5202;49.138;10.090;2023-03-15T08:03:45;1.70;99.90
10314;DHT22;5202;49.138;10.090;2023-03-15T08:06:13;1.80;99.90
10314;DHT22;5202;49.138;10.090;2023-03-15T08:08:43;1.70;99.90
10314;DHT22;5202;49.138;10.090;2023-03-15T08:11:12;1.70;99.90
10314;DHT22;5202;49.138;10.090;2023-03-15T08:13:40;1.80;99.90
10314;DHT22;5202;49.138;10.090;2023-03-15T08:16:08;1.90;99.90
10314;DHT22;5202;49.138;10.090;2023-03-15T08:18:37;1.90;99.90
10314;DHT22;5202;49.138;10.090;2023-03-15T08:21:05;1.90;99.90
10314;DHT22;5202;49.138;10.090;2023-03-15T08:23:33;2.00;99.90
10314;DHT22;5202;49.138;10.090;2023-03-15T08:26:03;2.10;99.90
10314;DHT22;5202;49.138;10.090;2023-03-15T08:28:32;2.10;99.90
10314;DHT22;5202;49.138;10.090;2023-03-15T08:31:00;2.10;99.90
10314;DHT22;5202;49.138;10.090;2023-03-15T08:33:28;2.20;99.90
10314;DHT22;5202;49.138;10.090;2023-03-15T08:35:57;2.20;99.90
10314;DHT22;5202;49.138;10.090;2023-03-15T08:38:25;2.20;99.90
10314;DHT22;5202;49.138;10.090;2023-03-15T08:40:55;2.30;99.90
10314;DHT22;5202;49.138;10.090;2023-03-15T08:43:25;2.50;99.90
10314;DHT22;5202;49.138;10.090;2023-03-15T08:45:53;2.60;99.90
10314;DHT22;5202;49.138;10.090;2023-03-15T08:48:27;2.60;99.90
10314;DHT22;5202;49.138;10.090;2023-03-15T08:50:56;2.60;99.90
10314;DHT22;5202;49.138;10.090;2023-03-15T08:53:29;2.70;99.90
10314;DHT22;5202;49.138;10.090;2023-03-15T08:55:57;2.70;99.90
10314;DHT22;5202;49.138;10.090;2023-03-15T08:58:27;2.80;99.90
10314;DHT22;5202;49.138;10.090;2023-03-15T09:00:56;2.80;99.90
10314;DHT22;5202;49.138;10.090;2023-03-15T09:03:24;2.80;99.90
10314;DHT22;5202;49.138;10.090;2023-03-15T09:06:17;3.00;99.90
10314;DHT22;5202;49.138;10.090;2023-03-15T09:08:46;3.00;99.90
10314;DHT22;5202;49.138;10.090;2023-03-15T09:11:14;3.00;99.90
10314;DHT22;5202;49.138;10.090;2023-03-15T09:13:43;3.10;99.90
10314;DHT22;5202;49.138;10.090;2023-03-15T09:16:12;3.20;99.90
10314;DHT22;5202;49.138;10.090;2023-03-15T09:18:40;3.20;99.90
10314;DHT22;5202;49.138;10.090;2023-03-15T09:21:09;3.30;99.90
10314;DHT22;5202;49.138;10.090;2023-03-15T09:23:38;3.30;99.90
10314;DHT22;5202;49.138;10.090;2023-03-15T09:26:06;3.40;99.90
10314;DHT22;5202;49.138;10.090;2023-03-15T09:28:34;3.40;99.90
10314;DHT22;5202;49.138;10.090;2023-03-15T09:31:05;3.50;99.90
10314;DHT22;5202;49.138;10.090;2023-03-15T09:33:34;3.60;99.90
10314;DHT22;5202;49.138;10.090;2023-03-15T09:36:02;3.50;99.90
10314;DHT22;5202;49.138;10.090;2023-03-15T09:38:31;3.60;99.90
10314;DHT22;5202;49.138;10.090;2023-03-15T09:41:00;3.60;99.90
10314;DHT22;5202;49.138;10.090;2023-03-15T09:43:57;3.60;99.90
10314;DHT22;5202;49.138;10.090;2023-03-15T09:46:33;3.50;99.90
10314;DHT22;5202;49.138;10.090;2023-03-15T09:49:12;3.50;99.90
10314;DHT22;5202;49.138;10.090;2023-03-15T09:51:45;3.50;99.90
10314;DHT22;5202;49.138;10.090;2023-03-15T09:54:19;3.40;99.90
10314;DHT22;5202;49.138;10.090;2023-03-15T09:56:55;3.30;99.90
10314;DHT22;5202;49.138;10.090;2023-03-15T09:59:27;3.30;99.60
10314;DHT22;5202;49.138;10.090;2023-03-15T10:02:03;3.30;99.90
10314;DHT22;5202;49.138;10.090;2023-03-15T10:04:44;3.30;99.90
10314;DHT22;5202;49.138;10.090;2023-03-15T10:07:14;3.30;99.90
10314;DHT22;5202;49.138;10.090;2023-03-15T10:09:43;3.20;99.60
10314;DHT22;5202;49.138;10.090;2023-03-15T10:12:14;3.10;99.20
10314;DHT22;5202;49.138;10.090;2023-03-15T10:15:09;3.00;99.20
10314;DHT22;5202;49.138;10.090;2023-03-15T10:17:54;3.00;99.90
10314;DHT22;5202;49.138;10.090;2023-03-15T10:20:37;3.00;99.90
10314;DHT22;5202;49.138;10.090;2023-03-15T10:23:11;3.00;99.90
10314;DHT22;5202;49.138;10.090;2023-03-15T10:25:45;3.00;99.90
10314;DHT22;5202;49.138;10.090;2023-03-15T10:28:21;3.20;99.90
10314;DHT22;5202;49.138;10.090;2023-03-15T10:30:51;3.30;99.90
10314;DHT22;5202;49.138;10.090;2023-03-15T10:33:27;3.30;99.90
10314;DHT22;5202;49.138;10.090;2023-03-15T10:35:58;3.30;99.90
10314;DHT22;5202;49.138;10.090;2023-03-15T10:38:37;3.40;99.90
10314;DHT22;5202;49.138;10.090;2023-03-15T10:41:10;3.30;99.90
10314;DHT22;5202;49.138;10.090;2023-03-15T10:43:58;3.30;99.90
10314;DHT22;5202;49.138;10.090;2023-03-15T10:46:27;3.30;99.90
10314;DHT22;5202;49.138;10.090;2023-03-15T10:48:58;3.30;99.90
10314;DHT22;5202;49.138;10.090;2023-03-15T10:51:29;3.20;99.90
10314;DHT22;5202;49.138;10.090;2023-03-15T10:54:01;3.10;99.90
10314;DHT22;5202;49.138;10.090;2023-03-15T10:56:36;3.00;99.90
10314;DHT22;5202;49.138;10.090;2023-03-15T10:59:15;2.60;99.90
10314;DHT22;5202;49.138;10.090;2023-03-15T11:01:46;2.40;99.90
10314;DHT22;5202;49.138;10.090;2023-03-15T11:04:21;2.20;99.90
10314;DHT22;5202;49.138;10.090;2023-03-15T11:07:00;1.90;99.90
10314;DHT22;5202;49.138;10.090;2023-03-15T11:09:38;1.70;99.90
10314;DHT22;5202;49.138;10.090;2023-03-15T11:12:08;1.70;99.90
10314;DHT22;5202;49.138;10.090;2023-03-15T11:14:40;1.80;99.90
10314;DHT22;5202;49.138;10.090;2023-03-15T11:17:16;1.90;99.90
10314;DHT22;5202;49.138;10.090;2023-03-15T11:19:52;2.00;99.90
10314;DHT22;5202;49.138;10.090;2023-03-15T11:22:23;2.10;99.90
10314;DHT22;5202;49.138;10.090;2023-03-15T11:24:52;2.10;99.90
10314;DHT22;5202;49.138;10.090;2023-03-15T11:27:23;2.10;99.90
10314;DHT22;5202;49.138;10.090;2023-03-15T11:29:55;2.00;99.90
10314;DHT22;5202;49.138;10.090;2023-03-15T11:32:28;2.00;99.90
10314;DHT22;5202;49.138;10.090;2023-03-15T11:35:02;1.90;99.90
10314;DHT22;5202;49.138;10.090;2023-03-15T11:37:38;1.80;99.90
10314;DHT22;5202;49.138;10.090;2023-03-15T11:40:14;1.80;99.90
10314;DHT22;5202;49.138;10.090;2023-03-15T11:42:49;1.80;99.90
10314;DHT22;5202;49.138;10.090;2023-03-15T11:45:28;1.80;99.90
10314;DHT22;5202;49.138;10.090;2023-03-15T11:48:23;1.80;99.90
10314;DHT22;5202;49.138;10.090;2023-03-15T11:50:57;2.00;99.90
10314;DHT22;5202;49.138;10.090;2023-03-15T11:53:31;2.10;99.90
10314;DHT22;5202;49.138;10.090;2023-03-15T11:56:19;2.10;99.90
10314;DHT22;5202;49.138;10.090;2023-03-15T11:59:04;2.10;99.90
10314;DHT22;5202;49.138;10.090;2023-03-15T12:01:34;2.10;99.90
10314;DHT22;5202;49.138;10.090;2023-03-15T12:04:25;2.00;99.90
10314;DHT22;5202;49.138;10.090;2023-03-15T12:07:23;2.10;99.90
10314;DHT22;5202;49.138;10.090;2023-03-15T12:09:56;2.20;99.90
10314;DHT22;5202;49.138;10.090;2023-03-15T12:12:36;2.10;99.90
10314;DHT22;5202;49.138;10.090;2023-03-15T12:15:42;2.00;99.90
10314;DHT22;5202;49.138;10.090;2023-03-15T12:18:18;2.10;99.90
10314;DHT22;5202;49.138;10.090;2023-03-15T12:20:57;2.10;99.90
10314;DHT22;5202;49.138;10.090;2023-03-15T12:23:40;2.00;99.90
10314;DHT22;5202;49.138;10.090;2023-03-15T12:26:23;2.10;99.90
10314;DHT22;5202;49.138;10.090;2023-03-15T12:29:04;2.10;99.90
10314;DHT22;5202;49.138;10.090;2023-03-15T12:31:53;2.10;99.90
10314;DHT22;5202;49.138;10.090;2023-03-15T12:34:33;2.20;99.90
10314;DHT22;5202;49.138;10.090;2023-03-15T12:37:06;2.20;99.90
10314;DHT22;5202;49.138;10.090;2023-03-15T12:39:43;2.20;99.90
10314;DHT22;5202;49.138;10.090;2023-03-15T12:45:38;2.10;99.90
10314;DHT22;5202;49.138;10.090;2023-03-15T12:48:26;2.20;99.90
10314;DHT22;5202;49.138;10.090;2023-03-15T12:51:00;2.20;99.90
10314;DHT22;5202;49.138;10.090;2023-03-15T12:53:47;2.20;99.90
10314;DHT22;5202;49.138;10.090;2023-03-15T12:56:35;2.20;99.90
10314;DHT22;5202;49.138;10.090;2023-03-15T12:59:26;2.10;99.90
10314;DHT22;5202;49.138;10.090;2023-03-15T13:01:59;2.20;99.90
10314;DHT22;5202;49.138;10.090;2023-03-15T13:04:33;2.10;99.90
10314;DHT22;5202;49.138;10.090;2023-03-15T13:07:25;2.10;99.90
10314;DHT22;5202;49.138;10.090;2023-03-15T13:10:29;2.20;99.90
10314;DHT22;5202;49.138;10.090;2023-03-15T13:13:10;2.20;99.90
10314;DHT22;5202;49.138;10.090;2023-03-15T13:15:46;2.10;99.90
10314;DHT22;5202;49.138;10.090;2023-03-15T13:18:26;2.10;99.90
10314;DHT22;5202;49.138;10.090;2023-03-15T13:21:08;2.10;99.90
10314;DHT22;5202;49.138;10.090;2023-03-15T13:23:42;2.10;99.90
10314;DHT22;5202;49.138;10.090;2023-03-15T13:26:23;2.20;99.90
10314;DHT22;5202;49.138;10.090;2023-03-15T13:29:01;2.20;99.90
10314;DHT22;5202;49.138;10.090;2023-03-15T13:31:36;2.10;99.90
10314;DHT22;5202;49.138;10.090;2023-03-15T13:34:11;2.10;99.90
10314;DHT22;5202;49.138;10.090;2023-03-15T13:36:43;2.10;99.90
10314;DHT22;5202;49.138;10.090;2023-03-15T13:39:17;2.10;99.90
10314;DHT22;5202;49.138;10.090;2023-03-15T13:41:55;2.10;99.90
10314;DHT22;5202;49.138;10.090;2023-03-15T13:44:27;2.10;99.90
10314;DHT22;5202;49.138;10.090;2023-03-15T13:46:57;2.20;99.90
10314;DHT22;5202;49.138;10.090;2023-03-15T13:49:30;2.20;99.90
10314;DHT22;5202;49.138;10.090;2023-03-15T13:52:01;2.20;99.90
10314;DHT22;5202;49.138;10.090;2023-03-15T13:54:32;2.20;99.90
10314;DHT22;5202;49.138;10.090;2023-03-15T13:57:04;2.30;99.90
10314;DHT22;5202;49.138;10.090;2023-03-15T13:59:38;2.30;99.90
10314;DHT22;5202;49.138;10.090;2023-03-15T14:02:15;2.30;99.90
10314;DHT22;5202;49.138;10.090;2023-03-15T14:04:50;2.30;99.90
10314;DHT22;5202;49.138;10.090;2023-03-15T14:07:25;2.40;99.90
10314;DHT22;5202;49.138;10.090;2023-03-15T14:10:20;2.30;99.90
10314;DHT22;5202;49.138;10.090;2023-03-15T14:12:51;2.30;99.90
10314;DHT22;5202;49.138;10.090;2023-03-15T14:15:24;2.30;99.90
10314;DHT22;5202;49.138;10.090;2023-03-15T14:17:59;2.20;99.90
10314;DHT22;5202;49.138;10.090;2023-03-15T14:20:29;2.20;99.90
10314;DHT22;5202;49.138;10.090;2023-03-15T14:23:10;2.20;99.90
10314;DHT22;5202;49.138;10.090;2023-03-15T14:25:40;2.20;99.90
10314;DHT22;5202;49.138;10.090;2023-03-15T14:28:12;2.20;99.90
10314;DHT22;5202;49.138;10.090;2023-03-15T14:30:50;2.00;99.90
10314;DHT22;5202;49.138;10.090;2023-03-15T14:33:28;2.10;99.90
10314;DHT22;5202;49.138;10.090;2023-03-15T14:36:00;2.20;99.90
10314;DHT22;5202;49.138;10.090;2023-03-15T14:38:34;2.20;99.90
10314;DHT22;5202;49.138;10.090;2023-03-15T14:41:17;2.20;99.90
10314;DHT22;5202;49.138;10.090;2023-03-15T14:43:49;2.20;99.90
10314;DHT22;5202;49.138;10.090;2023-03-15T14:46:18;2.10;99.90
10314;DHT22;5202;49.138;10.090;2023-03-15T14:48:48;2.10;99.90
10314;DHT22;5202;49.138;10.090;2023-03-15T14:51:18;2.00;99.90
10314;DHT22;5202;49.138;10.090;2023-03-15T14:53:50;2.00;99.90
10314;DHT22;5202;49.138;10.090;2023-03-15T14:56:19;2.10;99.90
10314;DHT22;5202;49.138;10.090;2023-03-15T14:58:48;2.20;99.90
10314;DHT22;5202;49.138;10.090;2023-03-15T15:01:24;2.30;99.90
10314;DHT22;5202;49.138;10.090;2023-03-15T15:03:56;2.40;99.90
10314;DHT22;5202;49.138;10.090;2023-03-15T15:06:29;2.60;99.90
10314;DHT22;5202;49.138;10.090;2023-03-15T15:09:03;2.50;99.90
10314;DHT22;5202;49.138;10.090;2023-03-15T15:11:32;2.50;99.90
10314;DHT22;5202;49.138;10.090;2023-03-15T15:14:00;2.60;99.90
10314;DHT22;5202;49.138;10.090;2023-03-15T15:16:30;2.60;99.90
10314;DHT22;5202;49.138;10.090;2023-03-15T15:18:58;2.60;99.90
10314;DHT22;5202;49.138;10.090;2023-03-15T15:21:29;2.60;99.90
10314;DHT22;5202;49.138;10.090;2023-03-15T15:24:01;2.70;99.90
10314;DHT22;5202;49.138;10.090;2023-03-15T15:26:31;2.70;99.90
10314;DHT22;5202;49.138;10.090;2023-03-15T15:29:00;2.70;99.90
10314;DHT22;5202;49.138;10.090;2023-03-15T15:31:30;2.70;99.90
10314;DHT22;5202;49.138;10.090;2023-03-15T15:34:00;2.60;99.90
10314;DHT22;5202;49.138;10.090;2023-03-15T15:36:30;2.70;99.90
10314;DHT22;5202;49.138;10.090;2023-03-15T15:39:00;2.70;99.90
10314;DHT22;5202;49.138;10.090;2023-03-15T15:41:33;2.70;99.90
10314;DHT22;5202;49.138;10.090;2023-03-15T15:44:10;2.70;99.90
10314;DHT22;5202;49.138;10.090;2023-03-15T15:46:43;2.70;99.90
10314;DHT22;5202;49.138;10.090;2023-03-15T15:49:12;2.70;99.90
10314;DHT22;5202;49.138;10.090;2023-03-15T15:51:42;2.70;99.90
10314;DHT22;5202;49.138;10.090;2023-03-15T15:54:14;2.70;99.90
10314;DHT22;5202;49.138;10.090;2023-03-15T15:56:47;2.80;99.90
10314;DHT22;5202;49.138;10.090;2023-03-15T15:59:17;2.90;99.90
10314;DHT22;5202;49.138;10.090;2023-03-15T16:01:47;3.10;99.90
10314;DHT22;5202;49.138;10.090;2023-03-15T16:04:52;3.20;99.90
10314;DHT22;5202;49.138;10.090;2023-03-15T16:07:21;3.30;99.90
10314;DHT22;5202;49.138;10.090;2023-03-15T16:09:54;3.60;99.90
10314;DHT22;5202;49.138;10.090;2023-03-15T16:12:24;3.70;99.90
10314;DHT22;5202;49.138;10.090;2023-03-15T16:14:54;3.90;99.90
10314;DHT22;5202;49.138;10.090;2023-03-15T16:17:24;3.90;99.90
10314;DHT22;5202;49.138;10.090;2023-03-15T16:19:53;4.00;99.90
10314;DHT22;5202;49.138;10.090;2023-03-15T16:22:22;3.80;99.90
10314;DHT22;5202;49.138;10.090;2023-03-15T16:24:53;3.60;99.90
10314;DHT22;5202;49.138;10.090;2023-03-15T16:27:24;3.40;99.90
10314;DHT22;5202;49.138;10.090;2023-03-15T16:29:54;3.30;99.90
10314;DHT22;5202;49.138;10.090;2023-03-15T16:32:25;3.30;99.90